x

Stonewall Bank - 20nm West Of Newport, Or (46050) Weather Station

6:50pm - Wed 22nd Oct 2014 All times are PDT. -7 hours from GMT.

  • Wind
    18mph, 20mph gusts
  • Sea Temp 60°f
  • Air Temp 57°f
  • Sea Pressure 1005.9mb
  • Stonewall Bank - 20nm West Of Newport, Or
  • Stonewall Bank - 20nm West Of Newport, Or

More Historic Weather Station data

Upgrade to MSW Pro to gain access to the past 30 days of data for over 8000 Wavebouys and Weather Stations around the globe.

Join Pro

Comparision Forecast

View Surf forecast
   
Wed 10/22 6:50pm  -   -   -  18 20 mph 1005.9mb 60f 57f
5:50pm  -   -   -  25 29 mph 1004.8mb 60f 58f
4:50pm 14.5ft 14s 8s 22 29 mph 1005mb 60f 58f
3:50pm 15ft 14s 9s 20 25 mph 1004.3mb 60f 58f
2:50pm 15ft 14s 8s 20 25 mph 1005.5mb 60f 58f
1:50pm 15.5ft 14s 9s 16 20 mph 1004.5mb 60f 58f
12:50pm 15ft 15s 9s 16 20 mph 1005.6mb 60f 58f
11:50am 16.5ft 15s 9s 18 22 mph 1005.7mb 60f 60f
10:50am 17.5ft 14s 9s 13 20 mph 1006.5mb 60f 57f
9:50am 16.5ft 16s 9s 13 18 mph 1006.8mb 60f 58f
8:50am  -   -   -  18 22 mph 1007.1mb 60f 59f
7:50am 16.5ft 13s 8s 18 22 mph 1006.3mb 60f 60f
6:50am 18ft 9s 8s 22 29 mph 1006.7mb 60f 60f
5:50am 18ft 10s 8s 29 36 mph 1006.2mb 60f 59f
4:50am 17.5ft 10s 8s 27 34 mph 1006.6mb 60f 59f
3:50am 15.5ft 9s 7s 29 40 mph 1006.4mb 60f 58f
2:50am 17ft 9s 8s 29 38 mph 1006.7mb 60f 59f
1:50am 16ft 9s 8s 29 36 mph 1006.5mb 60f 60f
12:50am 16.5ft 9s 7s 29 36 mph 1006.5mb 60f 57f
Tue 10/21 11:50pm 14.5ft 8s 7s 29 38 mph 1006.8mb 60f 57f
10:50pm 15ft 8s 7s 31 40 mph 1007.4mb 60f 57f
9:50pm 15.5ft 8s 7s 29 36 mph 1007.9mb 59f 57f
8:50pm 14.5ft 14s 7s 25 34 mph 1008.6mb 59f 57f
7:50pm 15ft 13s 7s 29 36 mph 1009.5mb 60f 58f
6:50pm 14.5ft 7s 7s 27 34 mph 1010.4mb 60f 58f
5:50pm 13ft 13s 7s 27 31 mph 1011mb 60f 58f
4:50pm 12.5ft 11s 7s 25 29 mph 1011.8mb 60f 60f
3:50pm 12.5ft 14s 7s 25 31 mph 1012.6mb 59f 58f
2:50pm 13ft 13s 7s 25 31 mph 1012.5mb 59f 60f
1:50pm 12.5ft 13s 7s 25 31 mph 1013.2mb 59f 59f
12:50pm 12ft 11s 8s 22 25 mph 1013.6mb 59f 59f
11:50am 12.5ft 13s 7s 22 27 mph 1013.8mb 59f 59f
10:50am 13ft 12s 8s 20 25 mph 1014.1mb 59f 59f
9:50am 12ft 13s 8s 18 22 mph 1013.9mb 59f 59f
8:50am 12ft 13s 8s 18 20 mph 1013.5mb 59f 59f
7:50am 13.5ft 14s 9s 18 22 mph 1013.2mb 59f 59f
6:50am 12.5ft 14s 9s 18 22 mph 1012.9mb 59f 59f
5:50am 13ft 14s 9s 13 16 mph 1012.9mb 59f 60f
4:50am 13ft 15s 9s 11 13 mph 1012.5mb 59f 60f
3:50am 14ft 14s 9s 11 16 mph 1012.1mb 59f 60f
2:50am 13ft 15s 8s 13 18 mph 1011.6mb 59f 60f
1:50am 11.5ft 15s 8s 13 20 mph 1011.2mb 59f 58f
12:50am 12.5ft 15s 8s 18 22 mph 1010.7mb 59f 58f
Mon 10/20 11:50pm 14ft 15s 9s 18 20 mph 1010.4mb 59f 59f
10:50pm 15.5ft 15s 10s 16 20 mph 1010.1mb 59f 59f
9:50pm 16.5ft 15s 10s 16 18 mph 1009.3mb 60f 59f
8:50pm 15.5ft 15s 10s 13 18 mph 1009.2mb 60f 59f
7:50pm 13.5ft 14s 9s 16 18 mph 1008.9mb 60f 59f
6:50pm 14ft 16s 10s 13 18 mph 1008.8mb 60f 60f
5:50pm 14.5ft 15s 10s 13 18 mph 1008.8mb 60f 60f
4:50pm 13ft 15s 9s 13 18 mph 1008.7mb 60f 60f
3:50pm 14ft 14s 10s 16 18 mph 1008.2mb 60f 59f
2:50pm 13ft 15s 9s 16 20 mph 1008.2mb 60f 59f
1:50pm  -   -   -  18 25 mph 1007.7mb 60f 59f
12:50pm 13.5ft 15s 9s 16 22 mph 1007.6mb 59f 60f
11:50am 13ft 15s 9s 16 20 mph 1007.6mb 60f 60f
10:50am 11.5ft 16s 8s 18 20 mph 1007.4mb 60f 57f
9:50am 13ft 16s 9s 18 22 mph 1007.1mb 60f 60f
8:50am 12ft 16s 8s 16 20 mph 1006.5mb 60f 60f
7:50am 15ft 17s 9s 16 18 mph 1006.2mb 60f 59f
6:50am 14ft 13s 8s 18 22 mph 1006.1mb 60f 59f
5:50am 13ft 14s 8s 18 20 mph 1005.9mb 60f 59f
4:50am 12ft 16s 8s 18 22 mph 1006.2mb 60f 59f
3:50am 12ft 15s 8s 18 22 mph 1006.1mb 60f 59f
2:50am 11.5ft 11s 8s 18 22 mph 1006.3mb 60f 59f
1:50am 11.5ft 16s 9s 18 22 mph 1006mb 60f 58f
12:50am 12.5ft 16s 9s 18 20 mph 1005.8mb 60f 58f
Sun 10/19 11:50pm 10ft 17s 8s 18 20 mph 1005.9mb 60f 58f
10:50pm 11.5ft 16s 9s 16 18 mph 1006mb 60f 58f
9:50pm 12ft 11s  -  16 18 mph 1006mb 60f 58f
8:50pm 13ft 17s 8s 13 16 mph 1005.9mb 60f 59f
7:50pm 14ft 8s 7s 13 18 mph 1005.6mb 60f 58f
6:50pm 14.5ft 9s 7s 22 27 mph 1005.4mb 60f 60f
5:50pm 14.5ft 9s 7s 22 29 mph 1005.7mb 60f 60f
4:50pm 14ft 10s 7s 25 31 mph 1005.8mb 60f 61f
3:50pm 13ft 9s 7s 25 31 mph 1005.6mb 60f 62f
2:50pm 12.5ft 9s 7s 22 29 mph 1005.6mb 60f 62f
1:50pm 12ft 11s 7s 25 29 mph 1005.8mb 60f 61f
12:50pm 11ft 10s 7s 25 31 mph 1006.2mb 60f 62f
11:50am 10.5ft 9s 7s 22 29 mph 1006.6mb 60f 62f
10:50am 10ft 10s 6s 25 29 mph 1006.3mb 60f 62f
9:50am 10ft 10s 6s 22 27 mph 1006.7mb 60f 61f
8:50am 9ft 11s 6s 22 27 mph 1006.4mb 60f 61f
7:50am 8ft 10s 6s 22 27 mph 1005.8mb 60f 61f
6:50am 7ft 9s 6s 20 25 mph 1006.2mb 60f 60f
5:50am 7.5ft 10s 6s 20 22 mph 1006.4mb 60f 60f
4:50am 7ft 11s 6s 20 22 mph 1006.8mb 60f 60f
3:50am 7ft 11s 6s 18 22 mph 1007.6mb 60f 60f